sensor_id;sensor_type;location;lat;lon;timestamp;pressure;altitude;pressure_sealevel;temperature;humidity
13041;BME280;6587;42.728;23.288;2022-07-10T20:45:30;95119.22;;;24.03;92.11
13041;BME280;6587;42.728;23.288;2022-07-10T20:47:57;95119.22;;;23.88;92.87
13041;BME280;6587;42.728;23.288;2022-07-10T20:50:25;95122.94;;;23.82;92.95
13041;BME280;6587;42.728;23.288;2022-07-10T20:52:51;95123.00;;;23.81;92.51
13041;BME280;6587;42.728;23.288;2022-07-10T20:55:18;95130.84;;;23.77;92.40
13041;BME280;6587;42.728;23.288;2022-07-10T20:57:49;95129.97;;;23.78;91.69
13041;BME280;6587;42.728;23.288;2022-07-10T21:13:30;95126.78;;;24.54;86.74
13041;BME280;6587;42.728;23.288;2022-07-10T21:15:57;95141.09;;;24.26;88.42
13041;BME280;6587;42.728;23.288;2022-07-10T21:18:24;95142.38;;;24.18;88.26
13041;BME280;6587;42.728;23.288;2022-07-10T21:20:51;95142.16;;;24.22;87.98
13041;BME280;6587;42.728;23.288;2022-07-10T21:23:19;95135.53;;;24.34;86.93
13041;BME280;6587;42.728;23.288;2022-07-10T21:25:46;95132.81;;;24.37;86.22
13041;BME280;6587;42.728;23.288;2022-07-10T21:28:13;95137.94;;;24.37;86.63
13041;BME280;6587;42.728;23.288;2022-07-10T21:30:41;95136.97;;;24.40;86.51
13041;BME280;6587;42.728;23.288;2022-07-10T21:33:08;95132.06;;;24.35;85.12
13041;BME280;6587;42.728;23.288;2022-07-10T21:35:35;95126.44;;;24.29;84.24
13041;BME280;6587;42.728;23.288;2022-07-10T21:38:14;95125.88;;;24.23;82.95
13041;BME280;6587;42.728;23.288;2022-07-10T21:40:45;95129.50;;;24.19;81.91
13041;BME280;6587;42.728;23.288;2022-07-10T21:43:13;95126.28;;;24.16;81.53
13041;BME280;6587;42.728;23.288;2022-07-10T21:45:41;95119.41;;;24.16;80.96
13041;BME280;6587;42.728;23.288;2022-07-10T21:48:08;95125.38;;;24.17;80.58
13041;BME280;6587;42.728;23.288;2022-07-10T21:50:35;95123.72;;;24.16;80.28
13041;BME280;6587;42.728;23.288;2022-07-10T21:53:02;95128.91;;;24.14;80.16
13041;BME280;6587;42.728;23.288;2022-07-10T21:55:29;95088.22;;;23.92;79.47
13041;BME280;6587;42.728;23.288;2022-07-10T21:57:56;95126.34;;;24.14;79.50
13041;BME280;6587;42.728;23.288;2022-07-10T22:00:23;95119.56;;;24.13;78.95
13041;BME280;6587;42.728;23.288;2022-07-10T22:02:52;95124.69;;;24.13;78.54
13041;BME280;6587;42.728;23.288;2022-07-10T22:05:19;95124.78;;;24.12;78.47
13041;BME280;6587;42.728;23.288;2022-07-10T22:07:46;95123.06;;;24.12;78.22
13041;BME280;6587;42.728;23.288;2022-07-10T22:10:13;95115.53;;;24.09;77.83
13041;BME280;6587;42.728;23.288;2022-07-10T22:12:40;95118.91;;;24.10;77.40
13041;BME280;6587;42.728;23.288;2022-07-10T22:15:07;95115.53;;;24.09;77.27
13041;BME280;6587;42.728;23.288;2022-07-10T22:17:35;95123.31;;;24.08;76.73
13041;BME280;6587;42.728;23.288;2022-07-10T22:20:09;95092.78;;;23.87;76.42
13041;BME280;6587;42.728;23.288;2022-07-10T22:22:37;95120.97;;;24.03;76.40
13041;BME280;6587;42.728;23.288;2022-07-10T22:25:05;95120.81;;;24.06;76.15
13041;BME280;6587;42.728;23.288;2022-07-10T22:27:32;95092.69;;;23.89;76.15
13041;BME280;6587;42.728;23.288;2022-07-10T22:29:59;95117.25;;;24.09;76.01
13041;BME280;6587;42.728;23.288;2022-07-10T22:32:27;95116.09;;;24.14;75.70
13041;BME280;6587;42.728;23.288;2022-07-10T22:34:54;95119.50;;;24.15;75.83
13041;BME280;6587;42.728;23.288;2022-07-10T22:37:22;95115.03;;;24.18;75.77
13041;BME280;6587;42.728;23.288;2022-07-10T22:39:49;95124.38;;;24.19;75.68
13041;BME280;6587;42.728;23.288;2022-07-10T22:42:16;95118.91;;;24.25;75.78
13041;BME280;6587;42.728;23.288;2022-07-10T22:44:43;95119.00;;;24.24;75.86
13041;BME280;6587;42.728;23.288;2022-07-10T22:47:10;95127.50;;;24.24;75.69
13041;BME280;6587;42.728;23.288;2022-07-10T22:49:37;95130.16;;;24.23;75.99
13041;BME280;6587;42.728;23.288;2022-07-10T22:52:04;95129.25;;;24.24;76.12
13041;BME280;6587;42.728;23.288;2022-07-10T22:54:33;95126.69;;;24.24;75.91
13041;BME280;6587;42.728;23.288;2022-07-10T22:57:00;95133.47;;;24.25;76.00
13041;BME280;6587;42.728;23.288;2022-07-10T22:59:26;95126.69;;;24.24;76.02
13041;BME280;6587;42.728;23.288;2022-07-10T23:01:53;95137.69;;;24.26;76.20
13041;BME280;6587;42.728;23.288;2022-07-10T23:04:20;95107.00;;;24.09;76.36
13041;BME280;6587;42.728;23.288;2022-07-10T23:06:47;95133.47;;;24.25;75.95
13041;BME280;6587;42.728;23.288;2022-07-10T23:09:14;95140.16;;;24.27;76.10
13041;BME280;6587;42.728;23.288;2022-07-10T23:11:42;95133.56;;;24.23;76.06
13041;BME280;6587;42.728;23.288;2022-07-10T23:14:09;95119.56;;;24.13;76.27
13041;BME280;6587;42.728;23.288;2022-07-10T23:16:36;95136.03;;;24.25;76.34
13041;BME280;6587;42.728;23.288;2022-07-10T23:19:03;95136.03;;;24.25;76.26
13041;BME280;6587;42.728;23.288;2022-07-10T23:21:30;95139.25;;;24.29;76.59
13041;BME280;6587;42.728;23.288;2022-07-10T23:23:56;95141.09;;;24.26;76.13
13041;BME280;6587;42.728;23.288;2022-07-10T23:26:23;95140.72;;;24.33;76.29
13041;BME280;6587;42.728;23.288;2022-07-10T23:28:52;95144.31;;;24.30;76.47
13041;BME280;6587;42.728;23.288;2022-07-10T23:31:18;95145.97;;;24.31;76.78
13041;BME280;6587;42.728;23.288;2022-07-10T23:33:45;95120.16;;;24.18;76.65
13041;BME280;6587;42.728;23.288;2022-07-10T23:36:12;95149.44;;;24.30;76.67
13041;BME280;6587;42.728;23.288;2022-07-10T23:38:39;95142.63;;;24.29;76.87
13041;BME280;6587;42.728;23.288;2022-07-10T23:41:06;95146.13;;;24.28;76.77
13041;BME280;6587;42.728;23.288;2022-07-10T23:43:33;95141.25;;;24.23;76.67
13041;BME280;6587;42.728;23.288;2022-07-10T23:46:01;95142.88;;;24.24;76.63
13041;BME280;6587;42.728;23.288;2022-07-10T23:48:28;95140.50;;;24.21;76.71
13041;BME280;6587;42.728;23.288;2022-07-10T23:51:12;95140.75;;;24.17;76.59
13041;BME280;6587;42.728;23.288;2022-07-10T23:53:39;95150.44;;;24.12;76.23
13041;BME280;6587;42.728;23.288;2022-07-10T23:56:06;95146.38;;;24.08;76.53
13041;BME280;6587;42.728;23.288;2022-07-10T23:58:33;95151.56;;;24.06;76.47
